sensor_id;sensor_type;location;lat;lon;timestamp;pressure;altitude;pressure_sealevel;temperature;humidity
14882;BME280;7533;51.278;12.588;2023-03-11T00:00:48;97713.03;;;21.76;55.20
14882;BME280;7533;51.278;12.588;2023-03-11T00:05:53;97740.78;;;21.76;54.84
14882;BME280;7533;51.278;12.588;2023-03-11T00:10:58;97754.41;;;21.75;54.99
14882;BME280;7533;51.278;12.588;2023-03-11T00:16:02;97768.22;;;21.72;55.12
14882;BME280;7533;51.278;12.588;2023-03-11T00:21:14;97797.81;;;21.72;55.46
14882;BME280;7533;51.278;12.588;2023-03-11T00:26:17;97807.09;;;21.69;55.57
14882;BME280;7533;51.278;12.588;2023-03-11T00:31:20;97832.50;;;21.67;55.35
14882;BME280;7533;51.278;12.588;2023-03-11T00:36:27;97843.28;;;21.67;55.28
14882;BME280;7533;51.278;12.588;2023-03-11T00:41:32;97867.16;;;21.61;55.56
14882;BME280;7533;51.278;12.588;2023-03-11T00:46:35;97884.97;;;21.62;55.38
14882;BME280;7533;51.278;12.588;2023-03-11T00:51:41;97897.59;;;21.62;55.32
14882;BME280;7533;51.278;12.588;2023-03-11T00:56:44;97916.56;;;21.60;55.59
14882;BME280;7533;51.278;12.588;2023-03-11T01:01:47;97930.38;;;21.57;55.41
14882;BME280;7533;51.278;12.588;2023-03-11T01:06:51;97937.63;;;21.57;55.70
14882;BME280;7533;51.278;12.588;2023-03-11T01:11:54;97941.09;;;21.49;55.91
14882;BME280;7533;51.278;12.588;2023-03-11T01:16:57;97964.81;;;21.46;56.17
14882;BME280;7533;51.278;12.588;2023-03-11T01:22:01;97972.38;;;21.42;56.13
14882;BME280;7533;51.278;12.588;2023-03-11T01:27:04;97984.16;;;21.41;56.42
14882;BME280;7533;51.278;12.588;2023-03-11T01:32:07;98011.34;;;21.38;56.59
14882;BME280;7533;51.278;12.588;2023-03-11T01:37:11;98012.38;;;21.37;56.52
14882;BME280;7533;51.278;12.588;2023-03-11T01:42:14;98036.09;;;21.33;56.53
14882;BME280;7533;51.278;12.588;2023-03-11T01:47:33;98059.75;;;21.30;56.89
14882;BME280;7533;51.278;12.588;2023-03-11T01:52:39;98075.66;;;21.23;57.12
14882;BME280;7533;51.278;12.588;2023-03-11T01:57:45;98088.75;;;21.18;57.23
14882;BME280;7533;51.278;12.588;2023-03-11T02:02:51;98100.81;;;21.14;57.21
14882;BME280;7533;51.278;12.588;2023-03-11T02:07:56;98130.00;;;21.09;57.40
14882;BME280;7533;51.278;12.588;2023-03-11T02:13:04;98130.47;;;21.04;57.59
14882;BME280;7533;51.278;12.588;2023-03-11T02:18:07;98150.63;;;21.00;57.64
14882;BME280;7533;51.278;12.588;2023-03-11T02:23:13;98181.34;;;20.98;57.66
14882;BME280;7533;51.278;12.588;2023-03-11T02:28:20;98194.41;;;20.93;58.04
14882;BME280;7533;51.278;12.588;2023-03-11T02:33:25;98206.34;;;20.90;57.95
14882;BME280;7533;51.278;12.588;2023-03-11T02:38:30;98228.28;;;20.85;58.11
14882;BME280;7533;51.278;12.588;2023-03-11T02:43:39;98255.34;;;20.84;58.05
14882;BME280;7533;51.278;12.588;2023-03-11T02:48:46;98268.38;;;20.79;58.27
14882;BME280;7533;51.278;12.588;2023-03-11T02:53:51;98282.13;;;20.76;58.47
14882;BME280;7533;51.278;12.588;2023-03-11T02:58:56;98310.84;;;20.75;58.41
14882;BME280;7533;51.278;12.588;2023-03-11T03:03:59;98310.59;;;20.69;58.65
14882;BME280;7533;51.278;12.588;2023-03-11T03:09:06;98344.13;;;20.65;58.55
14882;BME280;7533;51.278;12.588;2023-03-11T03:14:10;98355.88;;;20.64;58.58
14882;BME280;7533;51.278;12.588;2023-03-11T03:19:13;98383.19;;;20.59;58.55
14882;BME280;7533;51.278;12.588;2023-03-11T03:24:16;98397.78;;;20.56;58.73
14882;BME280;7533;51.278;12.588;2023-03-11T03:29:20;98407.97;;;20.53;58.63
14882;BME280;7533;51.278;12.588;2023-03-11T03:34:24;98431.63;;;20.49;58.87
14882;BME280;7533;51.278;12.588;2023-03-11T03:39:26;98445.34;;;20.46;58.89
14882;BME280;7533;51.278;12.588;2023-03-11T03:44:33;98458.31;;;20.41;59.09
14882;BME280;7533;51.278;12.588;2023-03-11T03:49:36;98473.91;;;20.38;59.10
14882;BME280;7533;51.278;12.588;2023-03-11T03:54:40;98487.75;;;20.33;59.17
14882;BME280;7533;51.278;12.588;2023-03-11T03:59:44;98501.34;;;20.31;59.31
14882;BME280;7533;51.278;12.588;2023-03-11T04:04:47;98516.88;;;20.28;59.26
14882;BME280;7533;51.278;12.588;2023-03-11T04:09:50;98525.22;;;20.25;59.41
14882;BME280;7533;51.278;12.588;2023-03-11T04:14:54;98535.41;;;20.21;59.53
14882;BME280;7533;51.278;12.588;2023-03-11T04:19:57;98549.69;;;20.22;59.47
14882;BME280;7533;51.278;12.588;2023-03-11T04:25:00;98558.72;;;20.21;59.62
14882;BME280;7533;51.278;12.588;2023-03-11T04:30:08;98568.91;;;20.17;59.60
14882;BME280;7533;51.278;12.588;2023-03-11T04:35:11;98579.91;;;20.14;59.68
14882;BME280;7533;51.278;12.588;2023-03-11T04:40:14;98594.63;;;20.10;59.60
14882;BME280;7533;51.278;12.588;2023-03-11T04:45:19;98606.47;;;20.07;59.79
14882;BME280;7533;51.278;12.588;2023-03-11T04:50:24;98614.81;;;20.04;59.83
14882;BME280;7533;51.278;12.588;2023-03-11T04:55:27;98635.47;;;20.04;59.99
14882;BME280;7533;51.278;12.588;2023-03-11T05:00:32;98640.38;;;19.99;60.23
14882;BME280;7533;51.278;12.588;2023-03-11T05:05:43;98649.44;;;19.98;60.05
14882;BME280;7533;51.278;12.588;2023-03-11T05:10:47;98661.03;;;19.98;60.14
14882;BME280;7533;51.278;12.588;2023-03-11T05:15:51;98667.34;;;19.97;60.32
14882;BME280;7533;51.278;12.588;2023-03-11T05:20:54;98672.03;;;19.95;60.33
14882;BME280;7533;51.278;12.588;2023-03-11T05:26:00;98681.22;;;19.93;60.53
14882;BME280;7533;51.278;12.588;2023-03-11T05:31:11;98690.22;;;19.92;60.46
14882;BME280;7533;51.278;12.588;2023-03-11T05:36:15;98700.13;;;19.91;60.68
14882;BME280;7533;51.278;12.588;2023-03-11T05:41:19;98712.00;;;19.89;60.69
14882;BME280;7533;51.278;12.588;2023-03-11T05:46:23;98715.78;;;19.86;60.64
14882;BME280;7533;51.278;12.588;2023-03-11T05:51:27;98726.66;;;19.85;60.80
14882;BME280;7533;51.278;12.588;2023-03-11T05:56:30;98735.69;;;19.84;60.96
14882;BME280;7533;51.278;12.588;2023-03-11T06:01:35;98742.31;;;19.79;61.14
14882;BME280;7533;51.278;12.588;2023-03-11T06:06:38;98747.69;;;19.79;61.05
14882;BME280;7533;51.278;12.588;2023-03-11T06:11:42;98765.75;;;19.77;60.99
14882;BME280;7533;51.278;12.588;2023-03-11T06:16:47;98774.81;;;19.76;61.09
14882;BME280;7533;51.278;12.588;2023-03-11T06:21:51;98784.69;;;19.76;61.25
14882;BME280;7533;51.278;12.588;2023-03-11T06:26:54;98796.28;;;19.76;61.22
14882;BME280;7533;51.278;12.588;2023-03-11T06:32:01;98808.13;;;19.74;61.26
14882;BME280;7533;51.278;12.588;2023-03-11T06:37:04;98817.28;;;19.71;61.25
14882;BME280;7533;51.278;12.588;2023-03-11T06:42:09;98832.56;;;19.71;61.21
14882;BME280;7533;51.278;12.588;2023-03-11T06:47:13;98845.13;;;19.70;61.39
14882;BME280;7533;51.278;12.588;2023-03-11T06:52:17;98868.44;;;19.70;61.62
14882;BME280;7533;51.278;12.588;2023-03-11T06:57:20;98880.97;;;19.69;61.67
14882;BME280;7533;51.278;12.588;2023-03-11T07:02:26;98889.16;;;19.68;61.71
14882;BME280;7533;51.278;12.588;2023-03-11T07:07:29;98901.88;;;19.66;61.76
14882;BME280;7533;51.278;12.588;2023-03-11T07:12:34;98902.84;;;19.65;61.66
14882;BME280;7533;51.278;12.588;2023-03-11T07:17:38;98910.06;;;19.64;61.75
14882;BME280;7533;51.278;12.588;2023-03-11T07:22:42;98937.75;;;19.65;61.77
14882;BME280;7533;51.278;12.588;2023-03-11T07:27:44;98939.69;;;19.63;61.89
14882;BME280;7533;51.278;12.588;2023-03-11T07:32:48;98948.72;;;19.62;61.82
14882;BME280;7533;51.278;12.588;2023-03-11T07:37:51;98956.91;;;19.60;61.92
14882;BME280;7533;51.278;12.588;2023-03-11T07:42:54;98969.34;;;19.61;61.83
14882;BME280;7533;51.278;12.588;2023-03-11T07:47:58;98979.22;;;19.61;61.91
14882;BME280;7533;51.278;12.588;2023-03-11T07:53:01;98978.50;;;19.59;62.03
14882;BME280;7533;51.278;12.588;2023-03-11T07:58:04;98990.16;;;19.58;62.28
14882;BME280;7533;51.278;12.588;2023-03-11T08:03:08;99007.78;;;19.62;62.36
14882;BME280;7533;51.278;12.588;2023-03-11T08:08:10;99008.97;;;19.69;61.09
14882;BME280;7533;51.278;12.588;2023-03-11T08:13:13;99027.16;;;19.76;58.94
14882;BME280;7533;51.278;12.588;2023-03-11T08:18:18;99046.63;;;17.70;46.42
14882;BME280;7533;51.278;12.588;2023-03-11T08:23:21;99052.03;;;16.43;46.62
14882;BME280;7533;51.278;12.588;2023-03-11T08:28:23;99042.47;;;18.73;49.73
14882;BME280;7533;51.278;12.588;2023-03-11T08:33:28;99055.34;;;19.37;50.06
14882;BME280;7533;51.278;12.588;2023-03-11T08:38:31;99061.09;;;19.66;51.16
14882;BME280;7533;51.278;12.588;2023-03-11T08:43:34;99064.09;;;19.84;51.90
14882;BME280;7533;51.278;12.588;2023-03-11T08:48:38;99064.78;;;19.97;52.92
14882;BME280;7533;51.278;12.588;2023-03-11T08:53:41;99075.38;;;20.10;53.73
14882;BME280;7533;51.278;12.588;2023-03-11T08:58:44;99084.13;;;20.23;54.25
14882;BME280;7533;51.278;12.588;2023-03-11T09:03:48;99091.66;;;20.29;54.79
14882;BME280;7533;51.278;12.588;2023-03-11T09:08:51;99092.84;;;20.37;54.96
14882;BME280;7533;51.278;12.588;2023-03-11T09:13:54;99111.91;;;20.45;55.31
14882;BME280;7533;51.278;12.588;2023-03-11T09:18:58;99115.94;;;20.50;55.36
14882;BME280;7533;51.278;12.588;2023-03-11T09:24:05;99131.53;;;20.56;55.34
14882;BME280;7533;51.278;12.588;2023-03-11T09:29:07;99146.16;;;20.64;55.49
14882;BME280;7533;51.278;12.588;2023-03-11T09:34:12;99141.03;;;20.72;55.51
14882;BME280;7533;51.278;12.588;2023-03-11T09:39:16;99150.28;;;20.79;55.55
14882;BME280;7533;51.278;12.588;2023-03-11T09:44:23;99155.97;;;20.85;55.32
14882;BME280;7533;51.278;12.588;2023-03-11T09:49:37;99162.66;;;20.91;55.56
14882;BME280;7533;51.278;12.588;2023-03-11T09:54:44;99181.97;;;20.96;55.60
14882;BME280;7533;51.278;12.588;2023-03-11T09:59:48;99195.16;;;20.99;55.67
14882;BME280;7533;51.278;12.588;2023-03-11T10:04:56;99194.91;;;21.02;55.50
14882;BME280;7533;51.278;12.588;2023-03-11T10:10:00;99204.56;;;21.05;55.80
14882;BME280;7533;51.278;12.588;2023-03-11T10:15:15;99217.59;;;21.09;55.86
14882;BME280;7533;51.278;12.588;2023-03-11T10:20:25;99215.66;;;21.11;56.17
14882;BME280;7533;51.278;12.588;2023-03-11T10:25:32;99224.28;;;21.15;56.46
14882;BME280;7533;51.278;12.588;2023-03-11T10:30:46;99238.56;;;20.63;56.32
14882;BME280;7533;51.278;12.588;2023-03-11T10:35:52;99237.72;;;20.94;55.76
14882;BME280;7533;51.278;12.588;2023-03-11T10:40:59;99234.16;;;21.05;55.78
14882;BME280;7533;51.278;12.588;2023-03-11T10:46:11;99237.88;;;21.13;55.93
14882;BME280;7533;51.278;12.588;2023-03-11T10:51:19;99235.53;;;21.20;55.96
14882;BME280;7533;51.278;12.588;2023-03-11T10:56:29;99247.13;;;20.56;52.97
14882;BME280;7533;51.278;12.588;2023-03-11T11:01:32;99249.72;;;20.90;53.61
14882;BME280;7533;51.278;12.588;2023-03-11T11:06:36;99265.69;;;21.03;54.06
14882;BME280;7533;51.278;12.588;2023-03-11T11:11:39;99261.38;;;21.11;54.31
14882;BME280;7533;51.278;12.588;2023-03-11T11:16:42;99271.34;;;21.21;54.45
14882;BME280;7533;51.278;12.588;2023-03-11T11:21:48;99272.56;;;21.28;54.71
14882;BME280;7533;51.278;12.588;2023-03-11T11:27:02;99274.03;;;21.32;55.03
14882;BME280;7533;51.278;12.588;2023-03-11T11:32:17;99279.16;;;21.35;55.34
14882;BME280;7533;51.278;12.588;2023-03-11T11:37:22;99285.25;;;21.37;55.47
14882;BME280;7533;51.278;12.588;2023-03-11T11:42:28;99282.47;;;21.38;55.89
14882;BME280;7533;51.278;12.588;2023-03-11T11:47:34;99295.50;;;21.43;56.28
14882;BME280;7533;51.278;12.588;2023-03-11T11:52:43;99287.31;;;21.45;57.09
14882;BME280;7533;51.278;12.588;2023-03-11T11:57:50;99291.56;;;21.47;57.18
14882;BME280;7533;51.278;12.588;2023-03-11T12:03:05;99294.25;;;21.47;57.25
14882;BME280;7533;51.278;12.588;2023-03-11T12:08:19;99297.28;;;21.54;57.05
14882;BME280;7533;51.278;12.588;2023-03-11T12:13:47;99297.19;;;21.55;57.14
14882;BME280;7533;51.278;12.588;2023-03-11T12:18:55;99293.59;;;21.55;57.19
14882;BME280;7533;51.278;12.588;2023-03-11T12:24:11;99298.97;;;21.55;57.37
14882;BME280;7533;51.278;12.588;2023-03-11T12:29:25;99296.19;;;21.56;57.47
14882;BME280;7533;51.278;12.588;2023-03-11T12:34:30;99300.44;;;21.59;57.24
14882;BME280;7533;51.278;12.588;2023-03-11T12:39:37;99298.50;;;21.61;57.47
14882;BME280;7533;51.278;12.588;2023-03-11T12:44:40;99305.56;;;21.62;57.43
14882;BME280;7533;51.278;12.588;2023-03-11T12:49:44;99300.91;;;21.64;57.20
14882;BME280;7533;51.278;12.588;2023-03-11T12:55:29;99313.50;;;21.63;57.26
14882;BME280;7533;51.278;12.588;2023-03-11T13:00:46;99325.75;;;21.68;57.38
14882;BME280;7533;51.278;12.588;2023-03-11T13:05:59;99323.75;;;21.70;57.27
14882;BME280;7533;51.278;12.588;2023-03-11T13:11:37;99321.78;;;21.72;57.34
14882;BME280;7533;51.278;12.588;2023-03-11T13:16:43;99327.06;;;21.73;57.64
14882;BME280;7533;51.278;12.588;2023-03-11T13:21:47;99329.75;;;21.73;57.85
14882;BME280;7533;51.278;12.588;2023-03-11T13:26:54;99334.28;;;21.73;58.05
14882;BME280;7533;51.278;12.588;2023-03-11T13:32:20;99347.63;;;21.74;58.15
14882;BME280;7533;51.278;12.588;2023-03-11T13:37:35;99350.31;;;21.74;58.09
14882;BME280;7533;51.278;12.588;2023-03-11T13:42:47;99348.47;;;21.75;58.08
14882;BME280;7533;51.278;12.588;2023-03-11T13:47:52;99355.56;;;21.76;57.98
14882;BME280;7533;51.278;12.588;2023-03-11T13:53:00;99357.25;;;21.77;57.87
14882;BME280;7533;51.278;12.588;2023-03-11T13:58:17;99364.38;;;21.78;57.88
14882;BME280;7533;51.278;12.588;2023-03-11T14:03:22;99363.38;;;21.79;57.85
14882;BME280;7533;51.278;12.588;2023-03-11T14:08:27;99364.31;;;21.89;57.83
14882;BME280;7533;51.278;12.588;2023-03-11T14:13:36;99367.13;;;22.08;57.25
14882;BME280;7533;51.278;12.588;2023-03-11T14:18:41;99369.81;;;22.08;57.26
14882;BME280;7533;51.278;12.588;2023-03-11T14:23:46;99378.09;;;22.16;57.33
14882;BME280;7533;51.278;12.588;2023-03-11T14:28:53;99394.16;;;22.18;57.48
14882;BME280;7533;51.278;12.588;2023-03-11T14:33:58;99391.00;;;22.13;57.72
14882;BME280;7533;51.278;12.588;2023-03-11T14:39:04;99400.09;;;22.12;57.27
14882;BME280;7533;51.278;12.588;2023-03-11T14:44:10;99401.78;;;22.13;56.74
14882;BME280;7533;51.278;12.588;2023-03-11T14:49:16;99413.66;;;22.10;56.30
14882;BME280;7533;51.278;12.588;2023-03-11T14:54:23;99418.31;;;22.08;56.15
14882;BME280;7533;51.278;12.588;2023-03-11T14:59:30;99426.19;;;22.11;55.84
14882;BME280;7533;51.278;12.588;2023-03-11T15:04:37;99426.63;;;22.16;55.43
14882;BME280;7533;51.278;12.588;2023-03-11T15:09:45;99432.22;;;22.25;54.88
14882;BME280;7533;51.278;12.588;2023-03-11T15:14:50;99435.16;;;22.22;54.52
14882;BME280;7533;51.278;12.588;2023-03-11T15:19:53;99452.09;;;22.24;54.48
14882;BME280;7533;51.278;12.588;2023-03-11T15:24:58;99435.91;;;22.24;54.18
14882;BME280;7533;51.278;12.588;2023-03-11T15:30:14;99440.63;;;22.52;53.66
14882;BME280;7533;51.278;12.588;2023-03-11T15:35:20;99452.97;;;22.55;52.69
14882;BME280;7533;51.278;12.588;2023-03-11T15:40:27;99448.44;;;23.07;51.27
14882;BME280;7533;51.278;12.588;2023-03-11T15:45:47;99452.88;;;23.27;50.40
14882;BME280;7533;51.278;12.588;2023-03-11T15:50:51;99448.66;;;22.94;50.54
14882;BME280;7533;51.278;12.588;2023-03-11T15:55:57;99461.09;;;22.85;51.10
14882;BME280;7533;51.278;12.588;2023-03-11T16:01:09;99465.19;;;22.80;51.44
14882;BME280;7533;51.278;12.588;2023-03-11T16:06:12;99466.81;;;22.71;51.46
14882;BME280;7533;51.278;12.588;2023-03-11T16:11:15;99477.94;;;22.78;51.67
14882;BME280;7533;51.278;12.588;2023-03-11T16:16:20;99488.34;;;22.61;52.01
14882;BME280;7533;51.278;12.588;2023-03-11T16:21:28;99489.66;;;22.67;52.00
14882;BME280;7533;51.278;12.588;2023-03-11T16:26:34;99492.78;;;22.62;52.19
14882;BME280;7533;51.278;12.588;2023-03-11T16:31:38;99500.13;;;22.60;52.34
14882;BME280;7533;51.278;12.588;2023-03-11T16:36:41;99504.03;;;22.67;52.61
14882;BME280;7533;51.278;12.588;2023-03-11T16:41:43;99506.97;;;22.64;52.76
14882;BME280;7533;51.278;12.588;2023-03-11T16:46:48;99518.91;;;22.62;52.98
14882;BME280;7533;51.278;12.588;2023-03-11T16:51:50;99538.03;;;22.59;53.49
14882;BME280;7533;51.278;12.588;2023-03-11T16:56:53;99543.41;;;22.59;54.01
14882;BME280;7533;51.278;12.588;2023-03-11T17:01:57;99544.56;;;22.56;54.15
14882;BME280;7533;51.278;12.588;2023-03-11T17:07:00;99546.03;;;22.49;54.28
14882;BME280;7533;51.278;12.588;2023-03-11T17:12:04;99550.50;;;22.39;54.60
14882;BME280;7533;51.278;12.588;2023-03-11T17:17:08;99567.19;;;22.33;54.90
14882;BME280;7533;51.278;12.588;2023-03-11T17:22:12;99565.03;;;22.27;55.51
14882;BME280;7533;51.278;12.588;2023-03-11T17:27:15;99574.38;;;22.23;55.89
14882;BME280;7533;51.278;12.588;2023-03-11T17:32:19;99582.56;;;22.21;55.82
14882;BME280;7533;51.278;12.588;2023-03-11T17:37:22;99593.25;;;22.23;56.22
14882;BME280;7533;51.278;12.588;2023-03-11T17:42:25;99594.81;;;22.25;55.97
14882;BME280;7533;51.278;12.588;2023-03-11T17:47:30;99600.44;;;22.22;56.05
14882;BME280;7533;51.278;12.588;2023-03-11T17:52:33;99609.28;;;22.24;55.87
14882;BME280;7533;51.278;12.588;2023-03-11T17:57:36;99613.69;;;22.25;56.03
14882;BME280;7533;51.278;12.588;2023-03-11T18:02:47;99626.31;;;22.25;55.94
14882;BME280;7533;51.278;12.588;2023-03-11T18:07:51;99620.78;;;22.26;55.92
14882;BME280;7533;51.278;12.588;2023-03-11T18:12:54;99627.16;;;22.25;56.14
14882;BME280;7533;51.278;12.588;2023-03-11T18:17:58;99632.69;;;22.24;56.02
14882;BME280;7533;51.278;12.588;2023-03-11T18:23:01;99635.38;;;22.24;56.19
14882;BME280;7533;51.278;12.588;2023-03-11T18:28:04;99636.38;;;22.23;55.99
14882;BME280;7533;51.278;12.588;2023-03-11T18:33:08;99635.25;;;22.25;56.15
14882;BME280;7533;51.278;12.588;2023-03-11T18:38:10;99634.53;;;22.23;56.02
14882;BME280;7533;51.278;12.588;2023-03-11T18:43:13;99635.38;;;22.24;56.20
14882;BME280;7533;51.278;12.588;2023-03-11T18:48:17;99640.00;;;22.22;56.20
14882;BME280;7533;51.278;12.588;2023-03-11T18:53:20;99640.88;;;22.22;56.15
14882;BME280;7533;51.278;12.588;2023-03-11T18:58:25;99642.72;;;22.22;56.41
14882;BME280;7533;51.278;12.588;2023-03-11T19:03:29;99638.19;;;22.22;56.45
14882;BME280;7533;51.278;12.588;2023-03-11T19:08:32;99640.88;;;22.22;56.42
14882;BME280;7533;51.278;12.588;2023-03-11T19:13:35;99640.88;;;22.22;56.22
14882;BME280;7533;51.278;12.588;2023-03-11T19:18:49;99652.03;;;22.29;56.29
14882;BME280;7533;51.278;12.588;2023-03-11T19:23:56;99654.44;;;22.32;56.65
14882;BME280;7533;51.278;12.588;2023-03-11T19:29:00;99655.19;;;22.34;56.85
14882;BME280;7533;51.278;12.588;2023-03-11T19:34:04;99659.59;;;22.35;57.03
14882;BME280;7533;51.278;12.588;2023-03-11T19:39:07;99654.22;;;22.35;57.09
14882;BME280;7533;51.278;12.588;2023-03-11T19:44:10;99657.50;;;22.38;57.22
14882;BME280;7533;51.278;12.588;2023-03-11T19:49:14;99668.16;;;22.40;57.33
14882;BME280;7533;51.278;12.588;2023-03-11T19:54:17;99666.31;;;22.40;57.21
14882;BME280;7533;51.278;12.588;2023-03-11T19:59:20;99666.19;;;22.42;57.22
14882;BME280;7533;51.278;12.588;2023-03-11T20:04:24;99667.91;;;22.43;57.33
14882;BME280;7533;51.278;12.588;2023-03-11T20:09:30;99666.06;;;22.43;57.28
14882;BME280;7533;51.278;12.588;2023-03-11T20:14:33;99665.94;;;22.45;57.44
14882;BME280;7533;51.278;12.588;2023-03-11T20:19:37;99674.75;;;22.47;57.33
14882;BME280;7533;51.278;12.588;2023-03-11T20:24:40;99674.63;;;22.49;57.45
14882;BME280;7533;51.278;12.588;2023-03-11T20:29:42;99679.03;;;22.50;57.42
14882;BME280;7533;51.278;12.588;2023-03-11T20:34:47;99677.31;;;22.49;57.37
14882;BME280;7533;51.278;12.588;2023-03-11T20:39:49;99673.53;;;22.51;57.49
14882;BME280;7533;51.278;12.588;2023-03-11T20:44:53;99668.00;;;22.53;57.41
14882;BME280;7533;51.278;12.588;2023-03-11T20:49:57;99664.31;;;22.54;57.43
14882;BME280;7533;51.278;12.588;2023-03-11T20:55:00;99665.03;;;22.56;57.33
14882;BME280;7533;51.278;12.588;2023-03-11T21:00:04;99672.25;;;22.55;57.46
14882;BME280;7533;51.278;12.588;2023-03-11T21:05:11;99669.47;;;22.57;57.11
14882;BME280;7533;51.278;12.588;2023-03-11T21:10:15;99667.63;;;22.57;57.28
14882;BME280;7533;51.278;12.588;2023-03-11T21:15:18;99669.31;;;22.58;57.21
14882;BME280;7533;51.278;12.588;2023-03-11T21:20:23;99661.63;;;22.54;56.00
14882;BME280;7533;51.278;12.588;2023-03-11T21:25:26;99666.00;;;22.55;56.66
14882;BME280;7533;51.278;12.588;2023-03-11T21:30:30;99674.72;;;22.58;57.04
14882;BME280;7533;51.278;12.588;2023-03-11T21:35:35;99682.81;;;22.58;57.09
14882;BME280;7533;51.278;12.588;2023-03-11T21:40:38;99687.50;;;22.56;57.05
14882;BME280;7533;51.278;12.588;2023-03-11T21:45:41;99683.06;;;22.55;57.25
14882;BME280;7533;51.278;12.588;2023-03-11T21:50:45;99675.72;;;22.57;57.35
14882;BME280;7533;51.278;12.588;2023-03-11T21:55:49;99675.22;;;22.52;57.34
14882;BME280;7533;51.278;12.588;2023-03-11T22:00:52;99673.63;;;22.50;57.58
14882;BME280;7533;51.278;12.588;2023-03-11T22:05:57;99673.13;;;22.56;57.25
14882;BME280;7533;51.278;12.588;2023-03-11T22:11:00;99680.97;;;22.59;57.16
14882;BME280;7533;51.278;12.588;2023-03-11T22:16:05;99689.91;;;22.59;57.01
14882;BME280;7533;51.278;12.588;2023-03-11T22:21:09;99696.28;;;22.58;57.09
14882;BME280;7533;51.278;12.588;2023-03-11T22:26:15;99695.44;;;22.58;57.19
14882;BME280;7533;51.278;12.588;2023-03-11T22:31:18;99680.97;;;22.59;57.12
14882;BME280;7533;51.278;12.588;2023-03-11T22:36:22;99682.81;;;22.58;57.06
14882;BME280;7533;51.278;12.588;2023-03-11T22:41:25;99692.47;;;22.61;57.16
14882;BME280;7533;51.278;12.588;2023-03-11T22:46:28;99696.16;;;22.60;57.12
14882;BME280;7533;51.278;12.588;2023-03-11T22:51:32;99683.53;;;22.60;56.98
14882;BME280;7533;51.278;12.588;2023-03-11T22:56:35;99694.81;;;22.54;57.34
14882;BME280;7533;51.278;12.588;2023-03-11T23:01:38;99699.22;;;22.55;57.24
14882;BME280;7533;51.278;12.588;2023-03-11T23:06:42;99691.91;;;22.57;57.33
14882;BME280;7533;51.278;12.588;2023-03-11T23:11:44;99703.88;;;22.64;57.24
14882;BME280;7533;51.278;12.588;2023-03-11T23:16:47;99699.34;;;22.65;57.42
14882;BME280;7533;51.278;12.588;2023-03-11T23:21:51;99714.53;;;22.66;57.44
14882;BME280;7533;51.278;12.588;2023-03-11T23:26:54;99710.97;;;22.65;57.59
14882;BME280;7533;51.278;12.588;2023-03-11T23:31:57;99720.91;;;22.65;57.53
14882;BME280;7533;51.278;12.588;2023-03-11T23:37:01;99724.47;;;22.65;57.74
14882;BME280;7533;51.278;12.588;2023-03-11T23:42:06;99726.16;;;22.66;57.74
14882;BME280;7533;51.278;12.588;2023-03-11T23:47:25;99729.13;;;22.63;57.83
14882;BME280;7533;51.278;12.588;2023-03-11T23:52:29;99727.16;;;22.65;57.87
14882;BME280;7533;51.278;12.588;2023-03-11T23:57:33;99734.41;;;22.65;57.99
